Time;durP1;ratioP1;P1;durP2;ratioP2;P2;SDS_P1;SDS_P2;PMS_P1;PMS_P2;Temp;Humidity;BMP_temperature;BMP_pressure;BME280_temperature;BME280_humidity;BME280_pressure;Samples;Min_cycle;Max_cycle;Signal;HPM_P1;HPM_P2
2021/09/03 00:01:58;;;;;;;6.65;4.80;;;;;;;15.67;nan;101049.44;5064905;28;20029;-75
2021/09/03 00:04:23;;;;;;;7.20;4.80;;;;;;;15.59;nan;101052.13;5055290;28;20069;-74
2021/09/03 00:06:48;;;;;;;5.82;4.10;;;;;;;15.54;nan;101041.13;5051285;28;20100;-75
2021/09/03 00:09:14;;;;;;;5.60;4.65;;;;;;;15.49;nan;101039.84;5055815;28;20531;-75
2021/09/03 00:11:39;;;;;;;5.95;4.00;;;;;;;15.48;nan;101035.50;5060915;28;20459;-75
2021/09/03 00:14:04;;;;;;;6.45;4.53;;;;;;;15.46;nan;101036.66;5061479;28;20047;-75
2021/09/03 00:16:30;;;;;;;5.82;4.10;;;;;;;15.46;nan;101032.16;5056493;28;20394;-75
2021/09/03 00:18:55;;;;;;;5.72;3.80;;;;;;;15.47;nan;101033.84;5058796;28;20044;-75
2021/09/03 00:21:21;;;;;;;5.55;4.43;;;;;;;15.46;nan;101036.66;5054212;28;20029;-75
2021/09/03 00:23:46;;;;;;;5.78;3.88;;;;;;;15.43;nan;101037.03;5049885;28;20041;-75
2021/09/03 00:26:11;;;;;;;6.57;4.32;;;;;;;15.38;nan;101034.03;5052545;28;20128;-75
2021/09/03 00:28:36;;;;;;;6.57;4.50;;;;;;;15.32;nan;101034.72;5036408;28;20031;-75
2021/09/03 00:31:02;;;;;;;7.28;4.95;;;;;;;15.31;nan;101033.06;5050166;28;20140;-75
2021/09/03 00:33:27;;;;;;;6.22;4.50;;;;;;;15.27;nan;101032.56;5054520;28;20096;-75
2021/09/03 00:35:52;;;;;;;8.88;4.53;;;;;;;15.27;nan;101037.88;5046899;28;20201;-75
2021/09/03 00:38:18;;;;;;;6.85;4.07;;;;;;;15.19;nan;101029.94;5054305;28;20075;-74
2021/09/03 00:40:43;;;;;;;6.00;4.15;;;;;;;15.16;nan;101023.09;5056373;28;20166;-75
2021/09/03 00:43:08;;;;;;;7.70;4.68;;;;;;;15.15;nan;101024.09;5061745;28;20090;-74
2021/09/03 00:45:34;;;;;;;6.30;4.50;;;;;;;15.20;nan;101018.25;5053271;28;20048;-73
2021/09/03 00:48:00;;;;;;;7.55;4.70;;;;;;;15.23;nan;101020.56;5061488;28;20044;-75
2021/09/03 00:50:25;;;;;;;7.97;4.30;;;;;;;15.19;nan;101011.28;5044421;28;20048;-75
2021/09/03 00:52:51;;;;;;;6.72;4.50;;;;;;;15.15;nan;101009.94;5048014;28;20436;-75
2021/09/03 00:55:16;;;;;;;7.63;5.20;;;;;;;15.15;nan;101013.44;5050898;28;20091;-73
2021/09/03 00:57:41;;;;;;;;;;;;;;;15.06;nan;101007.31;5036294;28;20032;-73
2021/09/03 01:00:08;;;;;;;5.47;4.05;;;;;;;15.06;nan;101001.97;5043482;28;19939;-73
2021/09/03 01:02:33;;;;;;;6.97;4.72;;;;;;;15.03;nan;101004.97;5031673;28;20033;-73
2021/09/03 01:04:58;;;;;;;6.53;4.55;;;;;;;15.09;nan;101008.81;5063428;28;20037;-74
2021/09/03 01:07:24;;;;;;;6.05;4.55;;;;;;;15.07;nan;101010.78;5045784;28;20091;-73
2021/09/03 01:09:49;;;;;;;6.68;4.85;;;;;;;15.13;nan;101003.94;5048949;28;20052;-75
2021/09/03 01:12:15;;;;;;;7.80;5.18;;;;;;;15.15;nan;101000.09;5036180;28;20092;-73
2021/09/03 01:14:41;;;;;;;7.57;5.00;;;;;;;15.12;nan;101007.63;5037768;28;20306;-74
2021/09/03 01:17:06;;;;;;;7.38;4.88;;;;;;;15.09;nan;101006.13;5048387;28;20029;-74
2021/09/03 01:19:32;;;;;;;7.78;4.80;;;;;;;15.13;nan;101007.44;5035410;28;20120;-74
2021/09/03 01:21:57;;;;;;;7.03;4.90;;;;;;;15.12;nan;101004.97;5049294;28;20513;-74
2021/09/03 01:24:22;;;;;;;6.32;4.80;;;;;;;15.08;nan;101002.63;5056279;28;20082;-73
2021/09/03 01:26:48;;;;;;;6.57;4.70;;;;;;;15.12;nan;100992.47;5039737;28;20039;-74
2021/09/03 01:29:13;;;;;;;6.25;4.40;;;;;;;15.07;nan;101000.97;5049298;28;20041;-74
2021/09/03 01:31:40;;;;;;;7.35;4.85;;;;;;;15.08;nan;100996.47;5047275;28;20029;-74
2021/09/03 01:34:05;;;;;;;6.03;4.50;;;;;;;15.01;nan;100998.97;5053375;28;20047;-75
2021/09/03 01:36:31;;;;;;;8.23;5.15;;;;;;;14.94;nan;100992.66;5032688;28;20401;-74
2021/09/03 01:38:58;;;;;;;8.02;4.40;;;;;;;14.91;nan;100990.34;5035007;28;20090;-74
2021/09/03 01:41:24;;;;;;;7.20;4.25;;;;;;;14.89;nan;100989.66;5061133;28;20025;-74
2021/09/03 01:43:49;;;;;;;5.93;4.35;;;;;;;14.78;nan;101001.50;5036268;28;20127;-74
2021/09/03 01:46:15;;;;;;;10.20;4.75;;;;;;;14.71;nan;100994.38;5026907;28;20033;-74
2021/09/03 01:48:40;;;;;;;6.25;4.70;;;;;;;14.75;nan;100993.84;5035560;28;20041;-74
2021/09/03 01:51:06;;;;;;;;;;;;;;;14.75;nan;100998.34;5053284;28;20106;-74
2021/09/03 01:53:31;;;;;;;8.15;4.80;;;;;;;14.79;nan;101000.50;5047510;28;19917;-74
2021/09/03 01:55:56;;;;;;;7.40;4.50;;;;;;;14.75;nan;100996.50;5054677;28;20036;-73
2021/09/03 01:58:22;;;;;;;6.57;4.83;;;;;;;14.79;nan;100997.00;5053984;28;20390;-74
2021/09/03 02:00:47;;;;;;;6.35;4.78;;;;;;;14.82;nan;100996.66;5055035;28;20049;-74
2021/09/03 02:03:14;;;;;;;7.20;4.60;;;;;;;14.93;nan;100998.16;5059993;28;20033;-73
2021/09/03 02:05:40;;;;;;;7.75;4.30;;;;;;;14.95;nan;100991.66;5060639;28;20053;-73
2021/09/03 02:08:05;;;;;;;6.68;5.05;;;;;;;14.94;nan;100995.31;5056155;28;20052;-73
2021/09/03 02:10:31;;;;;;;6.53;4.80;;;;;;;14.89;nan;100994.16;5053394;28;20111;-73
2021/09/03 02:12:56;;;;;;;6.05;4.70;;;;;;;14.87;nan;100999.66;5069026;28;20040;-74
2021/09/03 02:15:21;;;;;;;8.00;5.38;;;;;;;14.90;nan;100999.34;5043588;28;20052;-73
2021/09/03 02:17:47;;;;;;;7.05;4.85;;;;;;;14.90;nan;101003.81;5055343;28;20048;-74
2021/09/03 02:20:12;;;;;;;6.38;4.97;;;;;;;14.79;nan;101003.16;5048910;28;20091;-73
2021/09/03 02:22:38;;;;;;;6.53;4.80;;;;;;;14.67;nan;100995.69;5037050;28;20029;-73
2021/09/03 02:25:03;;;;;;;7.57;4.95;;;;;;;14.61;nan;100999.84;5055679;28;20063;-73
2021/09/03 02:27:29;;;;;;;8.75;5.05;;;;;;;14.62;nan;100999.69;5058743;28;20033;-73
2021/09/03 02:29:54;;;;;;;4.90;3.90;;;;;;;14.58;nan;100992.19;5052149;28;20469;-73
2021/09/03 02:32:20;;;;;;;6.45;4.75;;;;;;;14.56;nan;100992.38;5054733;28;20047;-73
2021/09/03 02:34:47;;;;;;;6.90;4.22;;;;;;;14.52;nan;100987.53;5055011;28;20035;-73
2021/09/03 02:37:12;;;;;;;;;;;;;;;14.52;nan;100995.50;5059690;28;20224;-72
2021/09/03 02:39:37;;;;;;;;;;;;;;;14.47;nan;100997.81;5043096;28;19912;-74
2021/09/03 02:42:03;;;;;;;7.10;4.63;;;;;;;14.43;nan;100999.97;5066487;28;19923;-74
2021/09/03 02:44:28;;;;;;;7.93;5.07;;;;;;;14.42;nan;101001.00;5048313;28;20268;-74
2021/09/03 02:46:54;;;;;;;5.63;4.70;;;;;;;14.42;nan;100990.34;5044160;28;20029;-75
2021/09/03 02:49:19;;;;;;;7.75;4.65;;;;;;;14.42;nan;100991.16;5056302;28;20451;-74
2021/09/03 02:51:45;;;;;;;6.63;4.72;;;;;;;14.42;nan;100998.34;5040680;28;20093;-74
2021/09/03 02:54:10;;;;;;;5.95;4.70;;;;;;;14.41;nan;100984.16;5032591;28;20033;-73
2021/09/03 02:56:36;;;;;;;7.30;5.00;;;;;;;14.39;nan;100982.69;5042335;28;20063;-73
2021/09/03 02:59:01;;;;;;;8.35;4.72;;;;;;;14.41;nan;100988.66;5046883;28;20041;-73
2021/09/03 03:01:26;;;;;;;7.00;5.03;;;;;;;14.48;nan;100989.66;5048244;28;20192;-73
2021/09/03 03:03:51;;;;;;;7.47;4.65;;;;;;;14.45;nan;100985.50;5062153;28;20041;-74
2021/09/03 03:06:17;;;;;;;6.50;4.80;;;;;;;14.47;nan;100993.34;5051672;28;20558;-74
2021/09/03 03:08:42;;;;;;;6.63;4.70;;;;;;;14.43;nan;100984.00;5042253;28;20041;-74
2021/09/03 03:11:07;;;;;;;6.22;4.88;;;;;;;14.43;nan;100982.19;5045445;28;20151;-74
2021/09/03 03:13:33;;;;;;;7.25;5.05;;;;;;;14.41;nan;100986.00;5054763;28;20039;-73
2021/09/03 03:15:58;;;;;;;7.45;5.22;;;;;;;14.44;nan;100983.88;5051869;28;20038;-73
2021/09/03 03:18:24;;;;;;;7.70;5.63;;;;;;;14.47;nan;100988.03;5053748;28;20442;-74
2021/09/03 03:20:50;;;;;;;7.00;5.25;;;;;;;14.35;nan;100979.53;5053560;28;20060;-73
2021/09/03 03:23:17;;;;;;;6.43;4.75;;;;;;;14.27;nan;100971.53;5039148;28;20029;-74
2021/09/03 03:25:42;;;;;;;8.02;5.40;;;;;;;14.24;nan;100974.53;5037299;28;20298;-74
2021/09/03 03:28:08;;;;;;;6.90;5.05;;;;;;;14.28;nan;100975.88;5058382;28;20105;-74
2021/09/03 03:30:34;;;;;;;8.63;5.07;;;;;;;14.25;nan;100970.84;5051219;28;20033;-74
2021/09/03 03:33:00;;;;;;;7.15;5.00;;;;;;;14.30;nan;100973.03;5059700;28;20040;-73
2021/09/03 03:35:25;;;;;;;7.97;5.57;;;;;;;14.34;nan;100966.38;5044197;28;20021;-74
2021/09/03 03:37:51;;;;;;;7.28;5.10;;;;;;;14.44;nan;100969.69;5054174;28;20035;-73
2021/09/03 03:40:17;;;;;;;8.05;5.70;;;;;;;14.51;nan;100967.22;5053497;28;20048;-73
2021/09/03 03:42:43;;;;;;;9.75;5.20;;;;;;;14.38;nan;100963.22;5041580;28;20033;-73
2021/09/03 03:45:09;;;;;;;7.18;5.30;;;;;;;14.44;nan;100959.06;5053638;28;20095;-74
2021/09/03 03:47:34;;;;;;;6.82;5.20;;;;;;;14.36;nan;100951.91;5050971;28;20067;-74
2021/09/03 03:50:00;;;;;;;7.57;4.88;;;;;;;14.37;nan;100950.94;5061308;28;20497;-73
2021/09/03 03:52:26;;;;;;;7.20;4.95;;;;;;;14.33;nan;100946.94;5034009;28;20059;-74
2021/09/03 03:54:51;;;;;;;7.30;4.47;;;;;;;14.39;nan;100948.91;5041441;28;20029;-74
2021/09/03 03:57:16;;;;;;;6.55;4.88;;;;;;;14.37;nan;100942.94;5050775;28;20021;-74
2021/09/03 03:59:42;;;;;;;8.15;5.22;;;;;;;14.41;nan;100943.44;5044235;28;20040;-74
2021/09/03 04:02:07;;;;;;;7.03;5.03;;;;;;;14.40;nan;100939.94;5049692;28;20037;-74
2021/09/03 04:04:32;;;;;;;6.28;5.00;;;;;;;14.45;nan;100942.13;5052852;28;20473;-74
2021/09/03 04:06:57;;;;;;;8.25;5.18;;;;;;;14.39;nan;100948.91;5033664;28;20504;-74
2021/09/03 04:09:23;;;;;;;7.05;5.20;;;;;;;14.36;nan;100949.25;5034118;28;20334;-74
2021/09/03 04:11:49;;;;;;;7.43;5.05;;;;;;;14.35;nan;100947.59;5049177;28;20033;-74
2021/09/03 04:14:16;;;;;;;8.88;5.43;;;;;;;14.41;nan;100957.56;5042543;28;20068;-74
2021/09/03 04:16:42;;;;;;;7.70;5.65;;;;;;;14.36;nan;100959.91;5050090;28;20040;-74
2021/09/03 04:19:07;;;;;;;6.80;5.25;;;;;;;14.28;nan;100956.38;5035021;28;20033;-74
2021/09/03 04:21:32;;;;;;;7.43;5.13;;;;;;;14.17;nan;100958.38;5049203;28;20059;-74
2021/09/03 04:23:58;;;;;;;7.32;5.07;;;;;;;14.10;nan;100956.56;5061262;28;20134;-74
2021/09/03 04:26:23;;;;;;;7.28;5.30;;;;;;;14.14;nan;100960.56;5054352;28;20055;-74
2021/09/03 04:28:48;;;;;;;8.35;5.72;;;;;;;14.13;nan;100959.69;5037515;28;20037;-74
2021/09/03 04:31:14;;;;;;;7.05;5.10;;;;;;;14.07;nan;100964.88;5044264;28;20333;-74
2021/09/03 04:33:39;;;;;;;7.55;5.22;;;;;;;14.07;nan;100949.75;5068598;28;20370;-74
2021/09/03 04:36:05;;;;;;;6.80;5.03;;;;;;;13.99;nan;100953.22;5062663;28;20381;-74
2021/09/03 04:38:30;;;;;;;8.88;5.60;;;;;;;13.97;nan;100960.53;5053088;28;20485;-73
2021/09/03 04:40:56;;;;;;;6.57;4.90;;;;;;;14.05;nan;100964.19;5053633;28;20032;-74
2021/09/03 04:43:22;;;;;;;8.90;5.57;;;;;;;14.16;nan;100963.88;5035238;28;20715;-76
2021/09/03 04:45:47;;;;;;;8.73;5.65;;;;;;;14.08;nan;100959.38;5053485;28;20136;-74
2021/09/03 04:48:14;;;;;;;7.88;4.97;;;;;;;14.07;nan;100952.41;5031028;28;20183;-74
2021/09/03 04:50:39;;;;;;;9.38;5.75;;;;;;;14.19;nan;100969.69;5064508;28;20190;-75
2021/09/03 04:53:04;;;;;;;7.32;5.40;;;;;;;14.13;nan;100969.50;5061939;28;20505;-75
2021/09/03 04:55:30;;;;;;;8.25;5.20;;;;;;;14.12;nan;100976.66;5050091;28;20422;-75
2021/09/03 04:57:55;;;;;;;9.35;5.32;;;;;;;14.15;nan;100970.19;5062808;28;20393;-75
2021/09/03 05:00:22;;;;;;;8.15;5.50;;;;;;;14.17;nan;100969.03;5053017;28;20094;-76
2021/09/03 05:02:48;;;;;;;8.73;5.47;;;;;;;14.14;nan;100973.84;5055678;28;20025;-74
2021/09/03 05:05:13;;;;;;;7.43;5.20;;;;;;;14.12;nan;100968.69;5055133;28;20124;-75
2021/09/03 05:07:39;;;;;;;7.20;4.97;;;;;;;14.11;nan;100955.53;5037902;28;20569;-74
2021/09/03 05:10:06;;;;;;;7.70;4.88;;;;;;;14.17;nan;100965.53;5051643;28;20059;-75
2021/09/03 05:12:31;;;;;;;6.63;4.43;;;;;;;14.17;nan;100963.72;5048270;28;20547;-75
2021/09/03 05:14:57;;;;;;;6.43;4.90;;;;;;;14.16;nan;100963.88;5066234;28;20033;-75
2021/09/03 05:17:23;;;;;;;6.70;4.88;;;;;;;14.18;nan;100960.06;5053377;28;20029;-75
2021/09/03 05:19:48;;;;;;;5.85;4.30;;;;;;;14.28;nan;100967.03;5046137;28;20048;-75
2021/09/03 05:22:14;;;;;;;6.55;4.40;;;;;;;14.31;nan;100961.41;5052931;28;20032;-75
2021/09/03 05:24:39;;;;;;;5.05;4.13;;;;;;;14.36;nan;100967.88;5053652;28;20231;-75
2021/09/03 05:27:04;;;;;;;6.22;4.68;;;;;;;14.49;nan;100963.88;5049455;28;20117;-75
2021/09/03 05:29:30;;;;;;;7.82;4.63;;;;;;;14.62;nan;100966.91;5025318;28;20033;-76
2021/09/03 05:31:55;;;;;;;5.63;4.45;;;;;;;14.75;nan;100969.06;5043966;28;20411;-76
2021/09/03 05:34:20;;;;;;;5.47;4.28;;;;;;;14.94;nan;100967.88;5064624;28;20056;-75
2021/09/03 05:36:46;;;;;;;6.88;4.60;;;;;;;15.15;nan;100978.81;5052156;28;20036;-75
2021/09/03 05:39:11;;;;;;;6.10;4.57;;;;;;;15.39;nan;100975.22;5050398;28;20041;-75
2021/09/03 05:41:36;;;;;;;7.13;4.45;;;;;;;15.80;nan;100977.75;5056029;28;20512;-75
2021/09/03 05:44:02;;;;;;;6.45;4.40;;;;;;;16.15;nan;100983.53;5033914;28;20049;-76
2021/09/03 05:46:27;;;;;;;5.63;3.97;;;;;;;16.47;nan;100977.13;5056148;28;20033;-76
2021/09/03 05:48:52;;;;;;;5.88;4.28;;;;;;;16.83;nan;100979.19;5049830;28;20055;-75
2021/09/03 05:51:19;;;;;;;6.25;3.92;;;;;;;17.07;nan;100972.75;5055335;28;20044;-76
2021/09/03 05:53:45;;;;;;;6.32;3.83;;;;;;;17.41;nan;100972.19;5060668;28;20033;-76
2021/09/03 05:56:10;;;;;;;5.82;3.88;;;;;;;17.61;nan;100975.13;5050921;28;20033;-76
2021/09/03 05:58:36;;;;;;;5.35;3.55;;;;;;;17.95;nan;100983.59;5062002;28;20429;-76
2021/09/03 06:01:01;;;;;;;5.75;3.78;;;;;;;18.12;nan;100986.84;5056211;28;20033;-75
2021/09/03 06:03:26;;;;;;;5.22;3.80;;;;;;;18.18;nan;100989.56;5063229;28;20374;-74
2021/09/03 06:05:51;;;;;;;6.30;4.35;;;;;;;18.34;nan;100985.81;5051429;28;20524;-74
2021/09/03 06:08:17;;;;;;;6.40;4.28;;;;;;;18.43;nan;100976.66;5052822;28;20092;-74
2021/09/03 06:10:42;;;;;;;6.72;4.53;;;;;;;18.56;nan;100975.09;5052560;28;20063;-75
2021/09/03 06:13:07;;;;;;;5.75;4.22;;;;;;;18.85;nan;100974.09;5058242;28;20069;-75
2021/09/03 06:15:34;;;;;;;7.35;4.15;;;;;;;18.88;nan;100966.53;5055044;28;20033;-75
2021/09/03 06:17:59;;;;;;;4.82;3.83;;;;;;;19.01;nan;100962.28;5053671;28;20036;-75
2021/09/03 06:20:24;;;;;;;7.13;4.32;;;;;;;19.38;nan;100976.28;5051195;28;20581;-75
2021/09/03 06:22:50;;;;;;;5.82;3.47;;;;;;;19.52;nan;100976.16;5033353;28;20053;-75
2021/09/03 06:25:15;;;;;;;5.55;4.05;;;;;;;19.92;nan;100972.81;5054376;28;20497;-75
2021/09/03 06:27:40;;;;;;;5.55;4.03;;;;;;;20.14;nan;100970.78;5059045;28;20083;-74
2021/09/03 06:30:06;;;;;;;6.45;4.28;;;;;;;20.30;nan;100970.41;5056662;28;20037;-75
2021/09/03 06:32:31;;;;;;;4.85;3.65;;;;;;;20.56;nan;100972.31;5052299;28;20060;-75
2021/09/03 06:34:59;;;;;;;5.03;3.90;;;;;;;21.19;nan;100973.69;5056325;28;20033;-75
2021/09/03 06:37:26;;;;;;;5.18;3.60;;;;;;;21.31;nan;100972.00;5057993;28;20029;-75
2021/09/03 06:39:52;;;;;;;5.60;3.90;;;;;;;21.58;nan;100975.44;5053772;28;20040;-74
2021/09/03 06:42:18;;;;;;;5.80;3.83;;;;;;;21.49;nan;100978.59;5063307;28;20036;-75
2021/09/03 06:44:43;;;;;;;5.20;3.70;;;;;;;21.53;nan;100975.25;5034387;28;20036;-75
2021/09/03 06:47:11;;;;;;;6.60;4.35;;;;;;;21.82;nan;100984.63;5058513;28;20120;-77
2021/09/03 06:49:37;;;;;;;5.72;3.95;;;;;;;21.70;nan;100980.97;5037416;28;20095;-76
2021/09/03 06:52:04;;;;;;;5.88;4.00;;;;;;;21.96;nan;100966.56;5052850;28;20033;-76
2021/09/03 06:54:31;;;;;;;7.65;4.30;;;;;;;22.20;nan;100973.06;5058463;28;20036;-76
2021/09/03 06:56:56;;;;;;;9.45;4.13;;;;;;;22.47;nan;100970.97;5064942;28;20028;-76
2021/09/03 06:59:21;;;;;;;6.28;3.88;;;;;;;22.34;nan;100968.41;5060620;28;20048;-76
2021/09/03 07:01:46;;;;;;;5.75;3.90;;;;;;;22.76;nan;100971.34;5058133;28;20044;-76
2021/09/03 07:04:12;;;;;;;4.65;3.47;;;;;;;22.79;nan;100975.50;5061330;28;20037;-76
2021/09/03 07:06:38;;;;;;;4.80;3.60;;;;;;;23.18;nan;100978.88;5044517;28;20060;-76
2021/09/03 07:09:06;;;;;;;5.05;3.95;;;;;;;23.63;nan;100970.44;5054366;28;20033;-76
2021/09/03 07:11:33;;;;;;;6.03;3.90;;;;;;;23.95;nan;100977.31;5070896;28;20129;-76
2021/09/03 07:14:01;;;;;;;4.30;3.42;;;;;;;23.75;nan;100976.75;5066893;28;20040;-75
2021/09/03 07:16:26;;;;;;;4.65;3.50;;;;;;;23.93;nan;100970.47;5017597;28;20093;-74
2021/09/03 07:18:52;;;;;;;6.60;3.38;;;;;;;24.12;nan;100972.09;5057128;28;20032;-76
2021/09/03 07:21:18;;;;;;;4.85;3.00;;;;;;;23.86;nan;100980.53;5070159;28;20041;-76
2021/09/03 07:23:43;;;;;;;5.25;3.75;;;;;;;23.74;nan;100975.13;5050218;28;20405;-75
2021/09/03 07:26:09;;;;;;;5.35;3.33;;;;;;;24.07;nan;100965.72;5057612;28;20075;-76
2021/09/03 07:28:34;;;;;;;4.50;3.40;;;;;;;24.31;nan;100963.88;5058210;28;20134;-77
2021/09/03 07:31:02;;;;;;;6.03;3.55;;;;;;;24.63;nan;100972.56;5059688;28;20139;-75
2021/09/03 07:33:27;;;;;;;4.65;3.40;;;;;;;24.63;nan;100969.03;5035974;28;20029;-76
2021/09/03 07:35:52;;;;;;;4.28;2.75;;;;;;;24.85;nan;100975.50;5064079;28;20059;-75
2021/09/03 07:38:18;;;;;;;4.55;3.38;;;;;;;25.32;nan;100975.47;5041665;28;20029;-76
2021/09/03 07:40:44;;;;;;;6.60;3.42;;;;;;;25.88;nan;100973.06;5077133;28;20028;-76
2021/09/03 07:43:10;;;;;;;6.97;3.50;;;;;;;25.57;nan;100964.31;5059280;28;20040;-75
2021/09/03 07:45:37;;;;;;;4.95;3.20;;;;;;;25.74;nan;100967.09;5062154;28;20176;-75
2021/09/03 07:48:03;;;;;;;4.57;3.20;;;;;;;25.64;nan;100958.75;5060618;28;20041;-74
2021/09/03 07:50:29;;;;;;;4.95;3.72;;;;;;;26.34;nan;100960.34;5058557;28;20512;-75
2021/09/03 07:52:54;;;;;;;4.25;3.30;;;;;;;26.43;nan;100964.28;5056764;28;20069;-75
2021/09/03 07:55:20;;;;;;;4.30;2.85;;;;;;;26.64;nan;100960.00;5052890;28;20037;-76
2021/09/03 07:57:45;;;;;;;5.07;3.28;;;;;;;27.01;nan;100961.34;5055441;28;20094;-76
2021/09/03 08:00:11;;;;;;;4.35;3.15;;;;;;;27.31;nan;100961.75;5062721;28;20041;-76
2021/09/03 08:02:36;;;;;;;2.90;2.10;;;;;;;27.89;nan;100962.19;5036195;28;20280;-76
2021/09/03 08:05:04;;;;;;;4.80;3.47;;;;;;;28.50;nan;100956.47;5036956;28;20033;-76
2021/09/03 08:07:30;;;;;;;4.80;3.20;;;;;;;28.61;nan;100965.53;5033904;28;20548;-75
2021/09/03 08:09:56;;;;;;;4.25;3.17;;;;;;;29.02;nan;100961.13;5055749;28;20045;-75
2021/09/03 08:12:21;;;;;;;4.10;3.40;;;;;;;28.97;nan;100954.84;5054339;28;20549;-76
2021/09/03 08:14:46;;;;;;;4.10;3.20;;;;;;;28.59;nan;100954.91;5064500;28;20110;-75
2021/09/03 08:17:12;;;;;;;4.28;3.00;;;;;;;28.92;nan;100947.47;5053800;28;20282;-75
2021/09/03 08:19:37;;;;;;;4.03;2.80;;;;;;;29.11;nan;100958.78;5051524;28;20105;-76
2021/09/03 08:22:03;;;;;;;6.55;3.50;;;;;;;29.17;nan;100949.53;5051631;28;20644;-75
2021/09/03 08:24:28;;;;;;;5.95;3.67;;;;;;;29.23;nan;100944.94;5048456;28;20037;-75
2021/09/03 08:26:54;;;;;;;3.58;2.80;;;;;;;29.38;nan;100944.97;5047088;28;20452;-75
2021/09/03 08:29:19;;;;;;;4.30;2.92;;;;;;;30.18;nan;100946.53;5060127;28;20056;-75
2021/09/03 08:31:44;;;;;;;6.03;2.90;;;;;;;30.85;nan;100948.13;5051117;28;20040;-75
2021/09/03 08:34:10;;;;;;;4.93;3.17;;;;;;;31.13;nan;100953.22;5056038;28;20036;-75
2021/09/03 08:36:35;;;;;;;3.67;2.70;;;;;;;31.25;nan;100950.97;5055780;28;20169;-75
2021/09/03 08:39:00;;;;;;;3.95;2.80;;;;;;;31.80;nan;100945.50;5052201;28;20485;-75
2021/09/03 08:41:26;;;;;;;4.07;3.13;;;;;;;32.11;nan;100951.63;5053031;28;20493;-75
2021/09/03 08:43:57;;;;;;;5.40;3.00;;;;;;;32.29;nan;100958.28;5046188;28;20086;-76
2021/09/03 08:46:27;;;;;;;4.88;3.15;;;;;;;32.04;nan;100951.94;5045459;28;20041;-75
2021/09/03 08:48:53;;;;;;;5.97;3.08;;;;;;;32.31;nan;100951.41;5059830;28;20067;-76
2021/09/03 08:51:19;;;;;;;4.03;2.78;;;;;;;31.87;nan;100940.53;5047168;28;20087;-75
2021/09/03 08:53:46;;;;;;;4.72;3.00;;;;;;;32.20;nan;100955.34;5052509;28;20029;-75
2021/09/03 08:56:12;;;;;;;4.25;3.20;;;;;;;32.34;nan;100956.31;5055216;28;20033;-75
2021/09/03 08:58:37;;;;;;;4.10;3.13;;;;;;;32.15;nan;100953.50;5056304;28;20112;-75
2021/09/03 09:01:16;;;;;;;5.00;2.80;;;;;;;32.65;nan;100966.19;5050717;28;20177;-76
2021/09/03 09:03:46;;;;;;;5.22;3.28;;;;;;;32.68;nan;100952.75;5055981;28;20859;-76
2021/09/03 09:06:25;;;;;;;4.07;2.83;;;;;;;31.89;nan;100941.91;5047886;28;20394;-76
2021/09/03 09:09:03;;;;;;;5.32;3.00;;;;;;;32.05;nan;100947.28;5055448;28;20040;-75
2021/09/03 09:11:30;;;;;;;4.18;3.00;;;;;;;31.33;nan;100943.00;5058823;28;20024;-75
2021/09/03 09:14:01;;;;;;;3.85;2.70;;;;;;;31.31;nan;100950.66;5059902;28;20088;-76
2021/09/03 09:16:32;;;;;;;4.30;3.25;;;;;;;30.43;nan;100957.44;5050976;28;20426;-76
2021/09/03 09:19:03;;;;;;;3.70;2.60;;;;;;;30.51;nan;100950.63;5052882;28;20031;-75
2021/09/03 09:21:34;;;;;;;4.18;3.10;;;;;;;30.65;nan;100940.78;5065429;28;20087;-75
2021/09/03 09:24:13;;;;;;;4.70;3.25;;;;;;;30.81;nan;100949.72;5057035;28;20102;-75
2021/09/03 09:26:50;;;;;;;4.20;2.90;;;;;;;30.35;nan;100943.53;5052289;28;20064;-75
2021/09/03 09:29:35;;;;;;;4.43;2.97;;;;;;;29.80;nan;100941.31;5055039;28;20045;-76
2021/09/03 09:32:05;;;;;;;3.65;2.95;;;;;;;29.53;nan;100938.78;5047480;28;20029;-75
2021/09/03 09:34:32;;;;;;;4.03;2.70;;;;;;;29.24;nan;100935.66;5068140;28;20036;-75
2021/09/03 09:37:01;;;;;;;3.50;2.60;;;;;;;29.23;nan;100931.31;5061392;28;20037;-76
2021/09/03 09:39:41;;;;;;;4.00;3.00;;;;;;;29.15;nan;100926.38;5066205;28;20041;-76
2021/09/03 09:42:21;;;;;;;3.88;2.95;;;;;;;28.56;nan;100930.94;5068858;28;20519;-76
2021/09/03 09:44:55;;;;;;;3.80;2.90;;;;;;;28.53;nan;100928.75;5055104;28;20033;-75
2021/09/03 09:47:20;;;;;;;3.90;2.90;;;;;;;28.41;nan;100935.41;5038042;28;20564;-75
2021/09/03 09:49:45;;;;;;;4.00;3.03;;;;;;;28.04;nan;100930.78;5058140;28;20192;-76
2021/09/03 09:52:11;;;;;;;3.90;2.90;;;;;;;27.93;nan;100916.25;5046079;28;20432;-76
2021/09/03 09:54:36;;;;;;;4.07;2.83;;;;;;;27.92;nan;100917.34;5029697;28;20359;-76
2021/09/03 09:57:04;;;;;;;3.50;2.80;;;;;;;27.85;nan;100916.75;5054968;28;20635;-76
2021/09/03 09:59:32;;;;;;;3.67;2.85;;;;;;;27.47;nan;100905.72;5053134;28;20052;-75
2021/09/03 10:02:00;;;;;;;4.10;3.00;;;;;;;27.46;nan;100916.84;5076156;28;20028;-75
2021/09/03 10:04:29;;;;;;;4.10;2.85;;;;;;;27.23;nan;100912.53;5057563;28;20105;-76
2021/09/03 10:06:59;;;;;;;5.22;3.05;;;;;;;27.17;nan;100900.72;5058657;28;20409;-76
2021/09/03 10:09:26;;;;;;;4.57;3.38;;;;;;;27.19;nan;100901.34;5063324;28;20389;-75
2021/09/03 10:11:54;;;;;;;5.80;2.78;;;;;;;27.00;nan;100905.41;5055753;28;20101;-76
2021/09/03 10:14:24;;;;;;;4.13;2.65;;;;;;;26.92;nan;100908.56;5065994;28;20052;-77
2021/09/03 10:16:51;;;;;;;4.32;3.00;;;;;;;26.79;nan;100899.75;5039926;28;20124;-76
2021/09/03 10:19:23;;;;;;;4.88;2.83;;;;;;;26.76;nan;100897.50;5055458;28;20086;-77
2021/09/03 10:21:48;;;;;;;4.53;3.30;;;;;;;26.73;nan;100884.44;5062695;28;20033;-77
2021/09/03 10:24:15;;;;;;;3.97;3.20;;;;;;;26.56;nan;100892.63;5055450;28;20160;-76
2021/09/03 10:26:44;;;;;;;4.22;3.22;;;;;;;26.37;nan;100894.75;5055700;28;20029;-76
2021/09/03 10:29:19;;;;;;;4.28;3.20;;;;;;;26.35;nan;100888.75;5037141;28;20041;-76
2021/09/03 10:32:03;;;;;;;4.90;3.20;;;;;;;26.18;nan;100885.25;5050214;28;20098;-76
2021/09/03 10:34:40;;;;;;;4.05;3.10;;;;;;;26.19;nan;100882.25;5063998;28;20036;-76
2021/09/03 10:37:16;;;;;;;5.65;3.17;;;;;;;26.16;nan;100881.94;5048457;28;20043;-75
2021/09/03 10:39:42;;;;;;;3.97;3.13;;;;;;;26.14;nan;100876.75;5033673;28;20138;-76
2021/09/03 10:42:08;;;;;;;4.15;3.10;;;;;;;26.25;nan;100873.16;5049777;28;20486;-76
2021/09/03 10:45:01;;;;;;;4.03;3.03;;;;;;;26.27;nan;100873.72;5052484;28;20044;-76
2021/09/03 10:47:31;;;;;;;4.65;2.92;;;;;;;26.42;nan;100866.91;5053890;28;20087;-76
2021/09/03 10:49:58;;;;;;;4.40;3.05;;;;;;;26.48;nan;100871.31;5048706;28;20094;-76
2021/09/03 10:52:26;;;;;;;4.45;2.63;;;;;;;26.46;nan;100871.56;5045887;28;20045;-76
2021/09/03 10:54:51;;;;;;;3.50;2.85;;;;;;;26.17;nan;100861.91;5050945;28;20036;-76
2021/09/03 10:57:16;;;;;;;3.72;2.60;;;;;;;26.21;nan;100860.34;5057964;28;20033;-76
2021/09/03 11:00:13;;;;;;;4.22;3.05;;;;;;;26.47;nan;100856.13;5038457;28;20037;-76
2021/09/03 11:02:39;;;;;;;3.58;2.72;;;;;;;26.42;nan;100859.56;5048634;28;20033;-76
2021/09/03 11:05:12;;;;;;;4.20;3.00;;;;;;;26.60;nan;100847.66;5051764;28;20034;-76
2021/09/03 11:07:45;;;;;;;4.68;3.00;;;;;;;26.53;nan;100848.84;5039249;28;20037;-76
2021/09/03 11:10:21;;;;;;;4.47;3.05;;;;;;;26.48;nan;100857.75;5042624;28;20044;-76
2021/09/03 11:12:51;;;;;;;4.38;2.75;;;;;;;26.48;nan;100858.59;5050783;28;20032;-75
2021/09/03 11:15:17;;;;;;;4.22;2.92;;;;;;;26.21;nan;100849.50;5061435;28;20037;-75
2021/09/03 11:17:42;;;;;;;4.82;3.20;;;;;;;26.15;nan;100850.47;5050138;28;20516;-75
2021/09/03 11:20:08;;;;;;;5.18;3.13;;;;;;;26.09;nan;100846.06;5037119;28;20122;-76
2021/09/03 11:22:36;;;;;;;4.45;2.85;;;;;;;26.22;nan;100843.84;5060695;28;20032;-75
2021/09/03 11:25:04;;;;;;;3.70;2.60;;;;;;;26.21;nan;100846.78;5051395;28;20419;-76
2021/09/03 11:27:30;;;;;;;3.63;2.55;;;;;;;26.03;nan;100840.56;5054278;28;20037;-76
2021/09/03 11:29:58;;;;;;;4.53;2.75;;;;;;;26.02;nan;100844.31;5048380;28;20038;-76
2021/09/03 11:32:28;;;;;;;5.55;3.00;;;;;;;26.34;nan;100841.03;5043990;28;20034;-75
2021/09/03 11:35:02;;;;;;;4.45;3.10;;;;;;;26.55;nan;100841.34;5066288;28;20037;-76
2021/09/03 11:37:42;;;;;;;4.07;3.00;;;;;;;26.62;nan;100837.34;5056998;28;20029;-76
2021/09/03 11:40:17;;;;;;;4.93;2.83;;;;;;;26.41;nan;100835.41;5062741;28;20219;-76
2021/09/03 11:42:46;;;;;;;3.88;2.85;;;;;;;26.44;nan;100829.50;5057252;28;20094;-76